| time (UTC) | temp F | wind direction | speed MPH | gust MPH | rain 1hr in | rain 24hr in | rain mn in | humidity % | barometer mb |
| 20260509221257 | 55 | 168 | 1.0 | 3.0 | 0.09 | 0.31 | 0.31 | 93 | 1010.2 |
| 20260509220751 | 55 | 153 | 0.0 | 3.0 | 0.10 | 0.31 | 0.31 | 93 | 1010.3 |
| 20260509220457 | 55 | 63 | 0.0 | 2.0 | 0.11 | 0.31 | 0.31 | 93 | 1010.3 |
| 20260509215735 | 55 | 63 | 0.0 | 3.0 | 0.12 | 0.31 | 0.31 | 93 | 1010.4 |
| 20260509215229 | 55 | 63 | 0.0 | 3.0 | 0.13 | 0.31 | 0.31 | 93 | 1010.3 |
| 20260509214718 | 55 | 74 | 0.0 | 3.0 | 0.13 | 0.31 | 0.31 | 93 | 1010.5 |
| 20260509214213 | 55 | 74 | 0.0 | 2.0 | 0.14 | 0.31 | 0.31 | 93 | 1010.5 |
| 20260509213707 | 55 | 74 | 0.0 | 2.0 | 0.15 | 0.31 | 0.31 | 93 | 1010.5 |
| 20260509213417 | 55 | 74 | 0.0 | 2.0 | 0.14 | 0.29 | 0.30 | 92 | 1010.3 |
| 20260509212651 | 55 | 74 | 0.0 | 2.0 | 0.13 | 0.28 | 0.28 | 92 | 1010.4 |
| 20260509212144 | 55 | 76 | 0.0 | 2.0 | 0.11 | 0.25 | 0.26 | 92 | 1010.6 |
| 20260509211635 | 55 | 76 | 0.0 | 1.0 | 0.09 | 0.23 | 0.24 | 92 | 1010.6 |
| 20260509211620 | 55 | 76 | 0.0 | 1.0 | 0.08 | 0.22 | 0.22 | 92 | 1010.5 |
| 20260509211059 | 55 | 76 | 0.0 | 1.0 | 0.08 | 0.21 | 0.21 | 92 | 1010.4 |
| 20260509210118 | 55 | 76 | 0.0 | 1.0 | 0.08 | 0.20 | 0.20 | 92 | 1010.5 |
| 20260509205607 | 55 | 76 | 0.0 | 1.0 | 0.07 | 0.19 | 0.19 | 91 | 1010.4 |
| 20260509205101 | 55 | 76 | 0.0 | 1.0 | 0.07 | 0.18 | 0.18 | 91 | 1010.3 |
| 20260509204555 | 55 | 76 | 0.0 | 2.0 | 0.07 | 0.17 | 0.17 | 91 | 1010.2 |
| 20260509204043 | 55 | 76 | 0.0 | 3.0 | 0.08 | 0.16 | 0.16 | 91 | 1010.4 |
| 20260509203542 | 55 | 76 | 0.0 | 3.0 | 0.09 | 0.16 | 0.16 | 91 | 1010.3 |
| 20260509203047 | 55 | 187 | 0.0 | 2.0 | 0.13 | 0.15 | 0.15 | 91 | 1010.4 |
| 20260509202544 | 55 | 187 | 0.0 | 2.0 | 0.12 | 0.14 | 0.14 | 91 | 1010.5 |
| 20260509202044 | 55 | 187 | 0.0 | 2.0 | 0.12 | 0.14 | 0.14 | 91 | 1010.5 |
| 20260509201542 | 55 | 187 | 0.0 | 2.0 | 0.13 | 0.14 | 0.14 | 91 | 1010.6 |
| 20260509201258 | 55 | 187 | 0.0 | 2.0 | 0.13 | 0.14 | 0.14 | 91 | 1010.5 |
| 20260509200538 | 55 | 187 | 0.0 | 2.0 | 0.12 | 0.13 | 0.13 | 90 | 1010.7 |
| 20260509200038 | 56 | 187 | 0.0 | 2.0 | 0.11 | 0.12 | 0.12 | 90 | 1010.9 |
| 20260509195535 | 56 | 186 | 0.0 | 2.0 | 0.11 | 0.12 | 0.12 | 90 | 1010.9 |
| 20260509195253 | 56 | 186 | 1.0 | 4.0 | 0.10 | 0.11 | 0.11 | 89 | 1010.9 |
| 20260509194532 | 56 | 186 | 1.0 | 4.0 | 0.09 | 0.10 | 0.10 | 88 | 1010.9 |
| 20260509194032 | 56 | 186 | 1.0 | 4.0 | 0.07 | 0.08 | 0.09 | 87 | 1011.2 |
| 20260509193754 | 57 | 198 | 1.0 | 4.0 | 0.06 | 0.07 | 0.08 | 87 | 1011.2 |
| 20260509193033 | 57 | 161 | 1.0 | 4.0 | 0.01 | 0.02 | 0.02 | 86 | 1011.1 |
| 20260509192528 | 57 | 148 | 1.0 | 4.0 | 0.01 | 0.02 | 0.02 | 85 | 1011.2 |
| 20260509192020 | 57 | 148 | 1.0 | 4.0 | 0.01 | 0.02 | 0.02 | 85 | 1011.0 |
| 20260509191523 | 58 | 119 | 1.0 | 3.0 | 0.01 | 0.01 | 0.01 | 85 | 1010.9 |
| 20260509191022 | 58 | 111 | 1.0 | 3.0 | 0.01 | 0.01 | 0.01 | 85 | 1011.0 |
| 20260509190747 | 58 | 350 | 0.0 | 3.0 | 0.01 | 0.01 | 0.01 | 86 | 1010.9 |
| 20260509190243 | 58 | 346 | 1.0 | 3.0 | 0.01 | 0.01 | 0.01 | 86 | 1010.9 |
| 20260509185523 | 57 | 227 | 1.0 | 3.0 | 0.01 | 0.01 | 0.01 | 85 | 1011.1 |
| 20260509185019 | 57 | 184 | 0.0 | 3.0 | 0.01 | 0.01 | 0.01 | 85 | 1010.9 |
| 20260509184519 | 58 | 185 | 0.0 | 3.0 | 0.01 | 0.01 | 0.01 | 85 | 1010.8 |
| 20260509184018 | 58 | 130 | 1.0 | 2.0 | 0.01 | 0.01 | 0.01 | 84 | 1010.7 |
| 20260509183520 | 58 | 110 | 1.0 | 4.0 | 0.01 | 0.01 | 0.01 | 84 | 1010.7 |
| 20260509183018 | 58 | 189 | 0.0 | 4.0 | 0.01 | 0.01 | 0.01 | 83 | 1010.7 |
| 20260509182801 | 59 | 190 | 1.0 | 4.0 | 0.01 | 0.01 | 0.01 | 82 | 1011.1 |
| 20260509182236 | 59 | 154 | 1.0 | 4.0 | 0.01 | 0.01 | 0.01 | 80 | 1011.2 |
| 20260509181744 | 60 | 70 | 1.0 | 5.0 | 0.00 | 0.00 | 0.00 | 80 | 1011.4 |
| 20260509181016 | 60 | 92 | 1.0 | 5.0 | 0.00 | 0.00 | 0.00 | 78 | 1011.4 |
| 20260509180517 | 60 | 191 | 1.0 | 6.0 | 0.00 | 0.00 | 0.00 | 78 | 1011.5 |
| 20260509180504 | 61 | 214 | 1.0 | 6.0 | 0.00 | 0.00 | 0.00 | 76 | 1011.4 |
| 20260509175517 | 61 | 174 | 1.0 | 4.0 | 0.00 | 0.00 | 0.00 | 76 | 1011.5 |
| 20260509175017 | 62 | 157 | 1.0 | 4.0 | 0.00 | 0.00 | 0.00 | 73 | 1011.5 |
| 20260509174738 | 63 | 179 | 1.0 | 4.0 | 0.00 | 0.00 | 0.00 | 71 | 1011.3 |
| 20260509174249 | 63 | 58 | 2.0 | 8.0 | 0.00 | 0.00 | 0.00 | 70 | 1011.1 |
| 20260509173516 | 64 | 227 | 2.0 | 8.0 | 0.00 | 0.00 | 0.00 | 67 | 1011.1 |
| 20260509173016 | 64 | 40 | 2.0 | 8.0 | 0.00 | 0.00 | 0.00 | 67 | 1010.9 |
| 20260509172750 | 65 | 320 | 2.0 | 8.0 | 0.00 | 0.00 | 0.00 | 66 | 1010.9 |
| 20260509172235 | 64 | 57 | 2.0 | 7.0 | 0.00 | 0.00 | 0.00 | 68 | 1010.8 |
| 20260509171517 | 64 | 262 | 1.0 | 7.0 | 0.00 | 0.00 | 0.00 | 70 | 1010.8 |
| 20260509171016 | 63 | 207 | 1.0 | 7.0 | 0.00 | 0.00 | 0.00 | 69 | 1010.9 |
| 20260509170516 | 63 | 105 | 1.0 | 4.0 | 0.00 | 0.00 | 0.00 | 69 | 1010.9 |
| 20260509170246 | 63 | 167 | 1.0 | 4.0 | 0.00 | 0.00 | 0.00 | 69 | 1010.8 |
| 20260509165516 | 63 | 211 | 1.0 | 5.0 | 0.00 | 0.00 | 0.00 | 70 | 1010.9 |
| 20260509165017 | 63 | 64 | 1.0 | 5.0 | 0.00 | 0.00 | 0.00 | 69 | 1010.9 |
| 20260509164517 | 63 | 50 | 1.0 | 5.0 | 0.00 | 0.00 | 0.00 | 69 | 1010.9 |
| 20260509164016 | 63 | 229 | 1.0 | 5.0 | 0.00 | 0.00 | 0.00 | 68 | 1011.0 |
| 20260509163745 | 63 | 47 | 1.0 | 5.0 | 0.00 | 0.00 | 0.00 | 68 | 1011.0 |
| 20260509163018 | 63 | 221 | 1.0 | 5.0 | 0.00 | 0.00 | 0.00 | 68 | 1011.2 |
| 20260509162516 | 64 | 59 | 1.0 | 4.0 | 0.00 | 0.00 | 0.00 | 69 | 1011.2 |
| 20260509162241 | 64 | 165 | 1.0 | 5.0 | 0.00 | 0.00 | 0.00 | 70 | 1011.3 |
| 20260509161513 | 63 | 217 | 1.0 | 5.0 | 0.00 | 0.00 | 0.00 | 69 | 1011.3 |
| 20260509161002 | 63 | 133 | 1.0 | 6.0 | 0.00 | 0.00 | 0.00 | 69 | 1011.2 |
| 20260509160456 | 63 | 225 | 2.0 | 6.0 | 0.00 | 0.00 | 0.00 | 69 | 1011.3 |
| 20260509155950 | 63 | 237 | 1.0 | 6.0 | 0.00 | 0.00 | 0.00 | 69 | 1011.5 |
| 20260509155439 | 63 | 136 | 1.0 | 6.0 | 0.00 | 0.00 | 0.00 | 73 | 1011.9 |
| 20260509154934 | 63 | 144 | 1.0 | 6.0 | 0.00 | 0.00 | 0.00 | 73 | 1011.6 |
| 20260509154428 | 63 | 25 | 1.0 | 6.0 | 0.00 | 0.00 | 0.00 | 73 | 1011.7 |
| 20260509153918 | 62 | 144 | 1.0 | 3.0 | 0.00 | 0.00 | 0.00 | 74 | 1011.7 |
| 20260509153640 | 62 | 143 | 1.0 | 3.0 | 0.00 | 0.00 | 0.00 | 75 | 1011.9 |
| 20260509152906 | 62 | 99 | 1.0 | 3.0 | 0.00 | 0.00 | 0.00 | 75 | 1011.9 |
| 20260509152615 | 61 | 111 | 1.0 | 5.0 | 0.00 | 0.00 | 0.00 | 76 | 1011.9 |
| 20260509151850 | 61 | 44 | 1.0 | 5.0 | 0.00 | 0.00 | 0.00 | 77 | 1011.7 |
| 20260509151355 | 60 | 261 | 1.0 | 5.0 | 0.00 | 0.00 | 0.00 | 77 | 1012.1 |
| 20260509151344 | 60 | 49 | 1.0 | 5.0 | 0.00 | 0.00 | 0.00 | 76 | 1012.0 |
| 20260509150327 | 60 | 205 | 1.0 | 4.0 | 0.00 | 0.00 | 0.00 | 77 | 1011.9 |
| 20260509145822 | 60 | 79 | 0.0 | 3.0 | 0.00 | 0.00 | 0.00 | 77 | 1012.0 |
| 20260509145311 | 60 | 159 | 0.0 | 4.0 | 0.00 | 0.00 | 0.00 | 77 | 1011.9 |
| 20260509144806 | 60 | 160 | 0.0 | 4.0 | 0.00 | 0.00 | 0.00 | 77 | 1011.9 |
| 20260509144523 | 60 | 160 | 1.0 | 4.0 | 0.00 | 0.00 | 0.00 | 77 | 1012.0 |
| 20260509143750 | 60 | 115 | 0.0 | 4.0 | 0.00 | 0.00 | 0.00 | 77 | 1012.0 |
| 20260509143244 | 60 | 229 | 1.0 | 4.0 | 0.00 | 0.00 | 0.00 | 77 | 1012.0 |
| 20260509142738 | 60 | 229 | 1.0 | 4.0 | 0.00 | 0.00 | 0.00 | 77 | 1011.9 |
| 20260509142456 | 60 | 230 | 1.0 | 4.0 | 0.00 | 0.00 | 0.00 | 77 | 1011.7 |
| 20260509141722 | 60 | 233 | 1.0 | 4.0 | 0.00 | 0.00 | 0.00 | 77 | 1011.7 |
| 20260509141215 | 60 | 40 | 1.0 | 4.0 | 0.00 | 0.00 | 0.00 | 77 | 1011.8 |
| 20260509140703 | 59 | 200 | 1.0 | 3.0 | 0.00 | 0.00 | 0.00 | 79 | 1011.9 |
| 20260509140158 | 59 | 221 | 1.0 | 3.0 | 0.00 | 0.00 | 0.00 | 81 | 1011.8 |
| 20260509135651 | 58 | 181 | 1.0 | 4.0 | 0.00 | 0.00 | 0.00 | 84 | 1011.9 |
| 20260509135400 | 57 | 88 | 1.0 | 4.0 | 0.00 | 0.00 | 0.00 | 85 | 1011.9 |
| 20260509134636 | 56 | 76 | 0.0 | 3.0 | 0.00 | 0.00 | 0.00 | 87 | 1011.8 |
| 20260509134356 | 55 | 76 | 0.0 | 3.0 | 0.00 | 0.00 | 0.00 | 87 | 1012.0 |
| 20260509133620 | 55 | 76 | 0.0 | 3.0 | 0.00 | 0.00 | 0.00 | 87 | 1012.1 |
| 20260509133114 | 55 | 76 | 1.0 | 3.0 | 0.00 | 0.00 | 0.00 | 87 | 1012.0 |
| 20260509132608 | 54 | 79 | 1.0 | 3.0 | 0.00 | 0.00 | 0.00 | 88 | 1011.9 |
| 20260509132058 | 54 | 79 | 1.0 | 2.0 | 0.00 | 0.00 | 0.00 | 88 | 1011.9 |
| 20260509131552 | 54 | 79 | 0.0 | 2.0 | 0.00 | 0.00 | 0.00 | 88 | 1012.0 |
| 20260509131046 | 54 | 79 | 0.0 | 1.0 | 0.00 | 0.00 | 0.00 | 88 | 1012.0 |
| 20260509130536 | 53 | 79 | 0.0 | 0.0 | 0.00 | 0.00 | 0.00 | 88 | 1012.2 |
| 20260509130030 | 53 | 79 | 0.0 | 0.0 | 0.00 | 0.00 | 0.00 | 88 | 1012.3 |
| 20260509125524 | 53 | 79 | 0.0 | 0.0 | 0.00 | 0.00 | 0.00 | 88 | 1012.3 |
| 20260509125014 | 53 | 79 | 0.0 | 0.0 | 0.00 | 0.00 | 0.00 | 88 | 1012.3 |
| 20260509124508 | 53 | 79 | 0.0 | 0.0 | 0.00 | 0.00 | 0.00 | 88 | 1012.3 |
| 20260509124002 | 53 | 79 | 0.0 | 0.0 | 0.00 | 0.00 | 0.00 | 88 | 1012.4 |
| 20260509123451 | 53 | 79 | 0.0 | 2.0 | 0.00 | 0.00 | 0.00 | 88 | 1012.2 |
| 20260509122946 | 53 | 79 | 0.0 | 2.0 | 0.00 | 0.00 | 0.00 | 88 | 1012.3 |
| 20260509122657 | 52 | 79 | 0.0 | 2.0 | 0.00 | 0.00 | 0.00 | 87 | 1012.4 |
| 20260509121929 | 52 | 79 | 0.0 | 2.0 | 0.00 | 0.00 | 0.00 | 87 | 1012.1 |
| 20260509121424 | 52 | 79 | 0.0 | 2.0 | 0.00 | 0.00 | 0.00 | 87 | 1012.3 |
| 20260509120917 | 52 | 79 | 0.0 | 2.0 | 0.00 | 0.00 | 0.00 | 86 | 1012.6 |
| 20260509120408 | 52 | 79 | 0.0 | 2.0 | 0.00 | 0.00 | 0.00 | 87 | 1012.6 |
| 20260509115902 | 52 | 79 | 0.0 | 2.0 | 0.00 | 0.00 | 0.00 | 87 | 1012.3 |
| 20260509115356 | 52 | 79 | 0.0 | 2.0 | 0.00 | 0.00 | 0.00 | 87 | 1012.2 |
| 20260509114846 | 51 | 80 | 0.0 | 3.0 | 0.00 | 0.00 | 0.00 | 87 | 1012.2 |
| 20260509114613 | 51 | 80 | 0.0 | 3.0 | 0.00 | 0.00 | 0.00 | 86 | 1012.3 |
| 20260509113834 | 51 | 80 | 0.0 | 3.0 | 0.00 | 0.00 | 0.00 | 86 | 1012.4 |
| 20260509113547 | 51 | 71 | 0.0 | 3.0 | 0.00 | 0.00 | 0.00 | 86 | 1011.9 |
| 20260509112817 | 51 | 70 | 0.0 | 3.0 | 0.00 | 0.00 | 0.00 | 86 | 1011.9 |
| 20260509112531 | 51 | 71 | 0.0 | 0.0 | 0.00 | 0.00 | 0.00 | 86 | 1012.1 |
| 20260509112025 | 51 | 72 | 0.0 | 0.0 | 0.00 | 0.00 | 0.00 | 86 | 1012.3 |
| 20260509111257 | 51 | 72 | 0.0 | 0.0 | 0.00 | 0.00 | 0.00 | 86 | 1012.5 |
| 20260509110750 | 51 | 72 | 0.0 | 0.0 | 0.00 | 0.00 | 0.00 | 86 | 1012.3 |
| 20260509110238 | 51 | 72 | 0.0 | 0.0 | 0.00 | 0.00 | 0.00 | 87 | 1012.6 |
| 20260509105733 | 51 | 72 | 0.0 | 0.0 | 0.00 | 0.00 | 0.00 | 87 | 1012.6 |
| 20260509105226 | 51 | 72 | 0.0 | 0.0 | 0.00 | 0.00 | 0.00 | 87 | 1012.5 |
| 20260509104717 | 50 | 72 | 0.0 | 0.0 | 0.00 | 0.00 | 0.00 | 87 | 1012.1 |
| 20260509104211 | 50 | 72 | 0.0 | 0.0 | 0.00 | 0.00 | 0.00 | 87 | 1012.2 |
| 20260509103704 | 50 | 72 | 0.0 | 0.0 | 0.00 | 0.00 | 0.00 | 88 | 1012.3 |
| 20260509103154 | 50 | 72 | 0.0 | 0.0 | 0.00 | 0.00 | 0.00 | 88 | 1012.1 |
| 20260509102908 | 50 | 72 | 0.0 | 0.0 | 0.00 | 0.00 | 0.00 | 88 | 1012.1 |
| 20260509102142 | 50 | 72 | 0.0 | 0.0 | 0.00 | 0.00 | 0.00 | 89 | 1012.0 |
| 20260509101633 | 50 | 72 | 0.0 | 0.0 | 0.00 | 0.00 | 0.00 | 89 | 1011.9 |
| 20260509101126 | 50 | 72 | 0.0 | 0.0 | 0.00 | 0.00 | 0.00 | 89 | 1012.1 |
| 20260509100621 | 50 | 72 | 0.0 | 0.0 | 0.00 | 0.00 | 0.00 | 89 | 1011.9 |
| 20260509100111 | 50 | 72 | 0.0 | 0.0 | 0.00 | 0.00 | 0.00 | 90 | 1012.0 |
| 20260509095604 | 50 | 72 | 0.0 | 0.0 | 0.00 | 0.00 | 0.00 | 90 | 1012.0 |
| 20260509095318 | 50 | 72 | 0.0 | 0.0 | 0.00 | 0.00 | 0.00 | 90 | 1011.9 |
| 20260509094555 | 50 | 72 | 0.0 | 0.0 | 0.00 | 0.00 | 0.00 | 90 | 1012.1 |
| 20260509094051 | 50 | 72 | 0.0 | 0.0 | 0.00 | 0.00 | 0.00 | 90 | 1012.0 |
| 20260509093550 | 50 | 72 | 0.0 | 0.0 | 0.00 | 0.00 | 0.00 | 90 | 1012.0 |
| 20260509093049 | 50 | 72 | 0.0 | 0.0 | 0.00 | 0.00 | 0.00 | 90 | 1012.1 |
| 20260509092551 | 50 | 72 | 0.0 | 0.0 | 0.00 | 0.00 | 0.00 | 90 | 1012.1 |
| 20260509092049 | 50 | 72 | 0.0 | 0.0 | 0.00 | 0.00 | 0.00 | 90 | 1012.2 |
| 20260509091815 | 50 | 72 | 0.0 | 0.0 | 0.00 | 0.00 | 0.00 | 90 | 1012.1 |
| 20260509091048 | 50 | 72 | 0.0 | 0.0 | 0.00 | 0.00 | 0.00 | 90 | 1012.1 |
| 20260509090545 | 50 | 72 | 0.0 | 0.0 | 0.00 | 0.00 | 0.00 | 89 | 1012.2 |
| 20260509090305 | 50 | 72 | 0.0 | 0.0 | 0.00 | 0.00 | 0.00 | 90 | 1012.1 |
| 20260509085541 | 50 | 72 | 0.0 | 0.0 | 0.00 | 0.00 | 0.00 | 90 | 1012.0 |
| 20260509085042 | 50 | 72 | 0.0 | 0.0 | 0.00 | 0.00 | 0.00 | 90 | 1012.0 |
| 20260509084542 | 50 | 72 | 0.0 | 0.0 | 0.00 | 0.00 | 0.00 | 90 | 1012.2 |
| 20260509084041 | 50 | 72 | 0.0 | 0.0 | 0.00 | 0.00 | 0.00 | 90 | 1012.3 |
| 20260509083541 | 50 | 72 | 0.0 | 0.0 | 0.00 | 0.00 | 0.00 | 89 | 1012.3 |
| 20260509083041 | 50 | 72 | 0.0 | 0.0 | 0.00 | 0.00 | 0.00 | 89 | 1012.3 |
| 20260509082534 | 50 | 72 | 0.0 | 0.0 | 0.00 | 0.00 | 0.00 | 89 | 1012.4 |
| 20260509082029 | 50 | 72 | 0.0 | 0.0 | 0.00 | 0.01 | 0.00 | 89 | 1012.5 |
| 20260509081742 | 50 | 72 | 0.0 | 0.0 | 0.00 | 0.01 | 0.00 | 88 | 1012.4 |
| 20260509081012 | 50 | 72 | 0.0 | 0.0 | 0.00 | 0.01 | 0.00 | 88 | 1012.3 |
| 20260509080511 | 50 | 72 | 0.0 | 0.0 | 0.00 | 0.01 | 0.00 | 88 | 1012.3 |
| 20260509080009 | 50 | 72 | 0.0 | 0.0 | 0.00 | 0.02 | 0.00 | 88 | 1012.3 |
| 20260509075510 | 50 | 72 | 0.0 | 0.0 | 0.00 | 0.02 | 0.00 | 88 | 1012.4 |
| 20260509075007 | 50 | 72 | 0.0 | 0.0 | 0.00 | 0.02 | 0.00 | 88 | 1012.6 |
| 20260509074728 | 50 | 72 | 0.0 | 0.0 | 0.00 | 0.02 | 0.00 | 88 | 1012.7 |
| 20260509074009 | 50 | 72 | 0.0 | 0.0 | 0.00 | 0.02 | 0.00 | 88 | 1012.7 |
| 20260509073509 | 50 | 72 | 0.0 | 0.0 | 0.00 | 0.02 | 0.00 | 88 | 1012.7 |
| 20260509073007 | 50 | 72 | 0.0 | 0.0 | 0.00 | 0.02 | 0.00 | 88 | 1012.6 |
| 20260509072505 | 50 | 72 | 0.0 | 0.0 | 0.00 | 0.02 | 0.00 | 88 | 1012.5 |
| 20260509072003 | 50 | 72 | 0.0 | 0.0 | 0.00 | 0.02 | 0.00 | 87 | 1012.3 |
| 20260509071501 | 50 | 72 | 0.0 | 0.0 | 0.00 | 0.02 | 0.00 | 87 | 1012.3 |
| 20260509071450 | 50 | 72 | 0.0 | 0.0 | 0.00 | 0.02 | 0.00 | 87 | 1012.2 |
| 20260509070457 | 50 | 72 | 0.0 | 0.0 | 0.00 | 0.02 | 0.00 | 86 | 1012.1 |
| 20260509065956 | 50 | 72 | 0.0 | 0.0 | 0.00 | 0.02 | 0.00 | 86 | 1012.3 |
| 20260509065450 | 50 | 72 | 0.0 | 0.0 | 0.00 | 0.02 | 0.00 | 86 | 1012.3 |
| 20260509065208 | 50 | 72 | 0.0 | 0.0 | 0.00 | 0.02 | 0.00 | 86 | 1012.1 |
| 20260509064448 | 50 | 72 | 0.0 | 0.0 | 0.00 | 0.02 | 0.00 | 86 | 1012.1 |
| 20260509064428 | 50 | 72 | 0.0 | 0.0 | 0.00 | 0.02 | 0.00 | 86 | 1012.1 |
| 20260509063712 | 50 | 72 | 0.0 | 0.0 | 0.00 | 0.02 | 0.00 | 86 | 1012.1 |
| 20260509062948 | 50 | 72 | 0.0 | 0.0 | 0.00 | 0.02 | 0.00 | 86 | 1012.1 |
| 20260509062447 | 50 | 72 | 0.0 | 0.0 | 0.00 | 0.02 | 0.00 | 86 | 1012.0 |
| 20260509061947 | 50 | 72 | 0.0 | 0.0 | 0.00 | 0.02 | 0.00 | 86 | 1012.4 |
| 20260509061711 | 50 | 72 | 0.0 | 0.0 | 0.00 | 0.02 | 0.00 | 86 | 1012.7 |
| 20260509061435 | 50 | 72 | 0.0 | 0.0 | 0.00 | 0.02 | 0.00 | 86 | 1012.7 |
| 20260509060447 | 51 | 72 | 0.0 | 0.0 | 0.00 | 0.02 | 0.00 | 86 | 1012.7 |
| 20260509055947 | 51 | 72 | 0.0 | 0.0 | 0.00 | 0.02 | 0.00 | 86 | 1012.9 |
| 20260509055447 | 51 | 72 | 0.0 | 0.0 | 0.00 | 0.03 | 0.00 | 85 | 1012.9 |
| 20260509055216 | 51 | 72 | 0.0 | 0.0 | 0.00 | 0.03 | 0.00 | 85 | 1013.0 |
| 20260509054449 | 51 | 72 | 0.0 | 0.0 | 0.00 | 0.03 | 0.00 | 85 | 1012.9 |
| 20260509053948 | 51 | 72 | 0.0 | 0.0 | 0.00 | 0.03 | 0.00 | 85 | 1013.0 |
| 20260509053722 | 51 | 72 | 0.0 | 0.0 | 0.00 | 0.03 | 0.00 | 84 | 1013.0 |
| 20260509053216 | 51 | 72 | 0.0 | 0.0 | 0.00 | 0.03 | 0.00 | 84 | 1013.1 |
| 20260509052713 | 51 | 72 | 0.0 | 0.0 | 0.00 | 0.03 | 0.00 | 84 | 1013.3 |
| 20260509052213 | 50 | 72 | 0.0 | 0.0 | 0.00 | 0.03 | 0.00 | 85 | 1013.4 |
| 20260509051447 | 50 | 72 | 0.0 | 0.0 | 0.00 | 0.03 | 0.00 | 84 | 1013.4 |
| 20260509050945 | 50 | 72 | 0.0 | 0.0 | 0.00 | 0.03 | 0.00 | 84 | 1013.3 |
| 20260509050452 | 50 | 72 | 0.0 | 0.0 | 0.00 | 0.03 | 0.00 | 83 | 1013.1 |
| 20260509045946 | 50 | 72 | 0.0 | 0.0 | 0.00 | 0.03 | 0.00 | 82 | 1013.2 |
| 20260509045447 | 50 | 72 | 0.0 | 0.0 | 0.00 | 0.03 | 0.00 | 82 | 1013.0 |
| 20260509044940 | 50 | 72 | 0.0 | 0.0 | 0.00 | 0.03 | 0.00 | 82 | 1013.2 |
| 20260509044434 | 50 | 72 | 0.0 | 0.0 | 0.00 | 0.03 | 0.00 | 81 | 1013.3 |
| 20260509043932 | 50 | 72 | 0.0 | 0.0 | 0.00 | 0.03 | 0.00 | 81 | 1013.3 |
| 20260509043423 | 50 | 72 | 0.0 | 0.0 | 0.00 | 0.03 | 0.00 | 81 | 1013.3 |
| 20260509043142 | 50 | 72 | 0.0 | 0.0 | 0.00 | 0.03 | 0.00 | 81 | 1013.2 |
| 20260509042402 | 50 | 72 | 0.0 | 0.0 | 0.00 | 0.03 | 0.00 | 81 | 1013.1 |
| 20260509041857 | 50 | 72 | 0.0 | 0.0 | 0.00 | 0.03 | 0.00 | 81 | 1013.2 |
| 20260509041351 | 50 | 72 | 0.0 | 0.0 | 0.00 | 0.03 | 0.00 | 81 | 1013.1 |
| 20260509040842 | 50 | 72 | 0.0 | 0.0 | 0.00 | 0.03 | 0.00 | 80 | 1013.0 |
| 20260509040335 | 51 | 72 | 0.0 | 0.0 | 0.00 | 0.03 | 0.00 | 80 | 1013.3 |
| 20260509035829 | 51 | 72 | 0.0 | 0.0 | 0.00 | 0.03 | 0.03 | 80 | 1013.2 |
| 20260509035550 | 51 | 72 | 0.0 | 0.0 | 0.00 | 0.03 | 0.03 | 80 | 1013.3 |
| 20260509034813 | 51 | 72 | 0.0 | 0.0 | 0.00 | 0.03 | 0.03 | 80 | 1013.3 |
| 20260509034306 | 51 | 72 | 0.0 | 0.0 | 0.00 | 0.03 | 0.03 | 80 | 1013.2 |
| 20260509034019 | 51 | 72 | 0.0 | 0.0 | 0.00 | 0.03 | 0.03 | 80 | 1013.2 |
| 20260509033250 | 51 | 72 | 0.0 | 0.0 | 0.00 | 0.03 | 0.03 | 81 | 1013.2 |
| 20260509032745 | 51 | 72 | 0.0 | 0.0 | 0.00 | 0.03 | 0.03 | 80 | 1013.3 |
| 20260509032234 | 51 | 72 | 0.0 | 0.0 | 0.00 | 0.03 | 0.03 | 81 | 1013.2 |
| 20260509031729 | 51 | 72 | 0.0 | 0.0 | 0.00 | 0.03 | 0.03 | 81 | 1013.3 |
| 20260509031223 | 51 | 72 | 0.0 | 0.0 | 0.00 | 0.03 | 0.03 | 82 | 1013.3 |
| 20260509030713 | 51 | 72 | 0.0 | 0.0 | 0.00 | 0.03 | 0.03 | 82 | 1013.4 |
| 20260509030206 | 51 | 72 | 0.0 | 0.0 | 0.00 | 0.03 | 0.03 | 82 | 1013.4 |
| 20260509025700 | 51 | 72 | 0.0 | 0.0 | 0.00 | 0.03 | 0.03 | 81 | 1013.4 |
| 20260509025151 | 51 | 72 | 0.0 | 0.0 | 0.00 | 0.03 | 0.03 | 81 | 1013.3 |
| 20260509024646 | 51 | 72 | 0.0 | 0.0 | 0.00 | 0.03 | 0.03 | 81 | 1013.2 |
| 20260509024138 | 51 | 72 | 0.0 | 0.0 | 0.00 | 0.03 | 0.03 | 81 | 1013.3 |
| 20260509023629 | 51 | 72 | 0.0 | 0.0 | 0.00 | 0.03 | 0.03 | 81 | 1013.2 |
| 20260509023123 | 51 | 72 | 0.0 | 0.0 | 0.00 | 0.03 | 0.03 | 81 | 1013.3 |
| 20260509022842 | 51 | 72 | 0.0 | 0.0 | 0.00 | 0.03 | 0.03 | 80 | 1013.2 |
| 20260509022107 | 51 | 72 | 0.0 | 0.0 | 0.00 | 0.03 | 0.03 | 80 | 1013.2 |
| 20260509021601 | 51 | 72 | 0.0 | 0.0 | 0.00 | 0.03 | 0.03 | 79 | 1013.1 |
| 20260509021055 | 51 | 72 | 0.0 | 0.0 | 0.00 | 0.03 | 0.03 | 79 | 1013.0 |
| 20260509020544 | 51 | 72 | 0.0 | 0.0 | 0.00 | 0.03 | 0.03 | 78 | 1012.9 |
| 20260509020039 | 51 | 72 | 0.0 | 0.0 | 0.00 | 0.03 | 0.03 | 79 | 1012.9 |
| 20260509015533 | 51 | 72 | 0.0 | 0.0 | 0.00 | 0.03 | 0.03 | 78 | 1012.9 |
| 20260509015021 | 52 | 72 | 0.0 | 0.0 | 0.00 | 0.03 | 0.03 | 78 | 1012.8 |
| 20260509014515 | 52 | 72 | 0.0 | 0.0 | 0.00 | 0.03 | 0.03 | 78 | 1012.6 |
| 20260509014009 | 52 | 72 | 0.0 | 0.0 | 0.00 | 0.03 | 0.03 | 77 | 1012.7 |
| 20260509013458 | 52 | 72 | 0.0 | 0.0 | 0.00 | 0.03 | 0.03 | 77 | 1012.6 |
| 20260509012953 | 52 | 72 | 0.0 | 0.0 | 0.00 | 0.03 | 0.03 | 77 | 1012.5 |
| 20260509012447 | 52 | 72 | 0.0 | 0.0 | 0.00 | 0.03 | 0.03 | 77 | 1012.4 |
| 20260509011936 | 52 | 72 | 0.0 | 0.0 | 0.00 | 0.03 | 0.03 | 75 | 1012.2 |
| 20260509011431 | 53 | 72 | 0.0 | 0.0 | 0.00 | 0.03 | 0.03 | 75 | 1012.2 |
| 20260509010925 | 53 | 72 | 0.0 | 0.0 | 0.00 | 0.03 | 0.03 | 75 | 1012.1 |
| 20260509010636 | 53 | 72 | 0.0 | 0.0 | 0.00 | 0.03 | 0.03 | 74 | 1012.1 |
| 20260509005909 | 53 | 72 | 0.0 | 0.0 | 0.00 | 0.03 | 0.03 | 74 | 1011.8 |
| 20260509005625 | 53 | 72 | 0.0 | 0.0 | 0.00 | 0.03 | 0.03 | 74 | 1011.9 |
| 20260509004853 | 53 | 72 | 0.0 | 0.0 | 0.00 | 0.03 | 0.03 | 73 | 1011.7 |
| 20260509004348 | 54 | 72 | 0.0 | 0.0 | 0.00 | 0.03 | 0.03 | 72 | 1011.6 |
| 20260509003841 | 54 | 72 | 0.0 | 0.0 | 0.00 | 0.03 | 0.03 | 70 | 1011.5 |
| 20260509003331 | 54 | 72 | 0.0 | 0.0 | 0.00 | 0.03 | 0.03 | 70 | 1011.5 |
| 20260509002825 | 54 | 72 | 0.0 | 0.0 | 0.00 | 0.03 | 0.03 | 70 | 1011.4 |
| 20260509002318 | 55 | 72 | 0.0 | 0.0 | 0.00 | 0.03 | 0.03 | 70 | 1011.4 |
| 20260509001822 | 55 | 72 | 0.0 | 0.0 | 0.00 | 0.03 | 0.03 | 69 | 1011.4 |
| 20260509001303 | 55 | 72 | 0.0 | 0.0 | 0.00 | 0.03 | 0.03 | 69 | 1011.5 |
| 20260509000756 | 55 | 72 | 0.0 | 0.0 | 0.00 | 0.03 | 0.03 | 69 | 1011.4 |
| 20260509000248 | 55 | 72 | 0.0 | 0.0 | 0.00 | 0.03 | 0.03 | 69 | 1011.4 |
| 20260508235741 | 55 | 72 | 0.0 | 0.0 | 0.00 | 0.03 | 0.03 | 68 | 1011.4 |
| 20260508235235 | 56 | 72 | 0.0 | 0.0 | 0.00 | 0.03 | 0.03 | 69 | 1011.5 |
| 20260508234725 | 56 | 72 | 0.0 | 0.0 | 0.00 | 0.03 | 0.03 | 68 | 1011.5 |
| 20260508234439 | 56 | 72 | 0.0 | 0.0 | 0.00 | 0.03 | 0.03 | 67 | 1011.6 |
| 20260508233713 | 56 | 72 | 0.0 | 0.0 | 0.00 | 0.03 | 0.03 | 66 | 1011.5 |
| 20260508233203 | 56 | 72 | 0.0 | 0.0 | 0.00 | 0.03 | 0.03 | 65 | 1011.5 |
| 20260508232657 | 56 | 72 | 0.0 | 0.0 | 0.00 | 0.03 | 0.03 | 64 | 1011.5 |
| 20260508232150 | 57 | 72 | 0.0 | 0.0 | 0.00 | 0.03 | 0.03 | 63 | 1011.3 |
| 20260508231641 | 57 | 72 | 0.0 | 2.0 | 0.00 | 0.03 | 0.03 | 63 | 1011.3 |
| 20260508231404 | 57 | 72 | 0.0 | 2.0 | 0.00 | 0.03 | 0.03 | 62 | 1011.4 |
| 20260508230629 | 57 | 72 | 0.0 | 2.0 | 0.00 | 0.03 | 0.03 | 62 | 1011.4 |
| 20260508230119 | 57 | 72 | 0.0 | 2.0 | 0.00 | 0.03 | 0.03 | 61 | 1011.4 |
| 20260508225838 | 57 | 72 | 1.0 | 2.0 | 0.00 | 0.03 | 0.03 | 62 | 1011.4 |
| 20260508225107 | 57 | 56 | 1.0 | 2.0 | 0.00 | 0.03 | 0.03 | 60 | 1011.2 |
| 20260508224607 | 58 | 56 | 1.0 | 2.0 | 0.00 | 0.03 | 0.03 | 62 | 1011.1 |
| 20260508224051 | 58 | 56 | 0.0 | 2.0 | 0.00 | 0.03 | 0.03 | 62 | 1011.2 |
| 20260508223544 | 58 | 56 | 0.0 | 2.0 | 0.00 | 0.03 | 0.03 | 63 | 1011.4 |
| 20260508223257 | 57 | 56 | 0.0 | 1.0 | 0.00 | 0.03 | 0.03 | 62 | 1011.3 |
| 20260508222529 | 57 | 56 | 0.0 | 2.0 | 0.00 | 0.03 | 0.03 | 62 | 1011.4 |
| 20260508222242 | 57 | 56 | 0.0 | 2.0 | 0.00 | 0.03 | 0.03 | 62 | 1011.4 |
| 20260508221736 | 58 | 21 | 0.0 | 3.0 | 0.00 | 0.03 | 0.03 | 63 | 1011.4 |